sensor_id;sensor_type;location;lat;lon;timestamp;P1;durP1;ratioP1;P2;durP2;ratioP2
42704;SDS011;28342;42.594;23.414;2024-03-25T00:02:05;0.70;;;0.70;;
42704;SDS011;28342;42.594;23.414;2024-03-25T00:04:31;1.48;;;0.93;;
42704;SDS011;28342;42.594;23.414;2024-03-25T00:06:56;1.50;;;0.50;;
42704;SDS011;28342;42.594;23.414;2024-03-25T00:09:23;7.85;;;0.77;;
42704;SDS011;28342;42.594;23.414;2024-03-25T00:11:49;2.60;;;0.70;;
42704;SDS011;28342;42.594;23.414;2024-03-25T00:14:19;1.85;;;0.55;;
42704;SDS011;28342;42.594;23.414;2024-03-25T00:16:46;0.70;;;0.40;;
42704;SDS011;28342;42.594;23.414;2024-03-25T00:19:11;0.93;;;0.45;;
42704;SDS011;28342;42.594;23.414;2024-03-25T00:21:37;0.47;;;0.40;;
42704;SDS011;28342;42.594;23.414;2024-03-25T00:24:02;4.13;;;0.57;;
42704;SDS011;28342;42.594;23.414;2024-03-25T00:26:28;0.85;;;0.38;;
42704;SDS011;28342;42.594;23.414;2024-03-25T00:28:53;0.77;;;0.43;;
42704;SDS011;28342;42.594;23.414;2024-03-25T00:31:19;0.77;;;0.50;;
42704;SDS011;28342;42.594;23.414;2024-03-25T00:33:44;3.00;;;0.60;;
42704;SDS011;28342;42.594;23.414;2024-03-25T00:36:10;0.50;;;0.50;;
42704;SDS011;28342;42.594;23.414;2024-03-25T00:38:35;2.22;;;0.70;;
42704;SDS011;28342;42.594;23.414;2024-03-25T00:41:01;0.70;;;0.40;;
42704;SDS011;28342;42.594;23.414;2024-03-25T00:43:27;2.08;;;0.63;;
42704;SDS011;28342;42.594;23.414;2024-03-25T00:45:53;1.80;;;0.47;;
42704;SDS011;28342;42.594;23.414;2024-03-25T00:48:18;0.30;;;0.30;;
42704;SDS011;28342;42.594;23.414;2024-03-25T00:50:43;2.40;;;0.50;;
42704;SDS011;28342;42.594;23.414;2024-03-25T00:53:09;0.77;;;0.50;;
42704;SDS011;28342;42.594;23.414;2024-03-25T00:55:34;0.40;;;0.25;;
42704;SDS011;28342;42.594;23.414;2024-03-25T00:58:01;0.98;;;0.50;;
42704;SDS011;28342;42.594;23.414;2024-03-25T01:00:27;0.50;;;0.30;;
42704;SDS011;28342;42.594;23.414;2024-03-25T01:02:52;0.55;;;0.28;;
42704;SDS011;28342;42.594;23.414;2024-03-25T01:05:18;2.80;;;0.60;;
42704;SDS011;28342;42.594;23.414;2024-03-25T01:07:43;1.40;;;0.90;;
42704;SDS011;28342;42.594;23.414;2024-03-25T01:10:10;1.75;;;0.50;;
42704;SDS011;28342;42.594;23.414;2024-03-25T01:12:35;2.13;;;0.95;;
42704;SDS011;28342;42.594;23.414;2024-03-25T01:15:01;1.27;;;0.60;;
42704;SDS011;28342;42.594;23.414;2024-03-25T01:17:28;0.98;;;0.50;;
42704;SDS011;28342;42.594;23.414;2024-03-25T01:19:53;1.70;;;0.52;;
42704;SDS011;28342;42.594;23.414;2024-03-25T01:22:18;0.20;;;0.20;;
42704;SDS011;28342;42.594;23.414;2024-03-25T01:24:44;0.30;;;0.30;;
42704;SDS011;28342;42.594;23.414;2024-03-25T01:27:09;1.10;;;0.20;;
42704;SDS011;28342;42.594;23.414;2024-03-25T01:29:35;0.30;;;0.30;;
42704;SDS011;28342;42.594;23.414;2024-03-25T01:32:00;0.63;;;0.30;;
42704;SDS011;28342;42.594;23.414;2024-03-25T01:34:27;0.47;;;0.30;;
42704;SDS011;28342;42.594;23.414;2024-03-25T01:36:53;2.25;;;0.43;;
42704;SDS011;28342;42.594;23.414;2024-03-25T01:39:18;0.85;;;0.60;;
42704;SDS011;28342;42.594;23.414;2024-03-25T01:41:44;1.90;;;0.60;;
42704;SDS011;28342;42.594;23.414;2024-03-25T01:44:10;1.17;;;0.65;;
42704;SDS011;28342;42.594;23.414;2024-03-25T01:46:36;0.68;;;0.60;;
42704;SDS011;28342;42.594;23.414;2024-03-25T01:49:01;0.82;;;0.60;;
42704;SDS011;28342;42.594;23.414;2024-03-25T01:51:27;1.42;;;0.70;;
42704;SDS011;28342;42.594;23.414;2024-03-25T01:53:53;1.58;;;0.60;;
42704;SDS011;28342;42.594;23.414;2024-03-25T01:56:20;0.45;;;0.45;;
42704;SDS011;28342;42.594;23.414;2024-03-25T01:58:48;0.77;;;0.60;;
42704;SDS011;28342;42.594;23.414;2024-03-25T02:01:14;0.95;;;0.50;;
42704;SDS011;28342;42.594;23.414;2024-03-25T02:03:40;0.57;;;0.50;;
42704;SDS011;28342;42.594;23.414;2024-03-25T02:06:09;0.40;;;0.30;;
42704;SDS011;28342;42.594;23.414;2024-03-25T02:08:39;0.73;;;0.52;;
42704;SDS011;28342;42.594;23.414;2024-03-25T02:11:06;0.57;;;0.57;;
42704;SDS011;28342;42.594;23.414;2024-03-25T02:13:32;0.50;;;0.50;;
42704;SDS011;28342;42.594;23.414;2024-03-25T02:15:57;0.95;;;0.60;;
42704;SDS011;28342;42.594;23.414;2024-03-25T02:18:23;0.50;;;0.50;;
42704;SDS011;28342;42.594;23.414;2024-03-25T02:20:48;0.75;;;0.57;;
42704;SDS011;28342;42.594;23.414;2024-03-25T02:23:14;0.47;;;0.47;;
42704;SDS011;28342;42.594;23.414;2024-03-25T02:25:40;0.55;;;0.50;;
42704;SDS011;28342;42.594;23.414;2024-03-25T02:28:07;0.38;;;0.38;;
42704;SDS011;28342;42.594;23.414;2024-03-25T02:30:33;2.35;;;0.65;;
42704;SDS011;28342;42.594;23.414;2024-03-25T02:32:58;1.42;;;0.88;;
42704;SDS011;28342;42.594;23.414;2024-03-25T02:35:24;0.45;;;0.43;;
42704;SDS011;28342;42.594;23.414;2024-03-25T02:37:51;0.38;;;0.38;;
42704;SDS011;28342;42.594;23.414;2024-03-25T02:40:17;0.50;;;0.50;;
42704;SDS011;28342;42.594;23.414;2024-03-25T02:42:44;0.30;;;0.30;;
42704;SDS011;28342;42.594;23.414;2024-03-25T02:45:10;0.50;;;0.50;;
42704;SDS011;28342;42.594;23.414;2024-03-25T02:47:35;1.60;;;0.75;;
42704;SDS011;28342;42.594;23.414;2024-03-25T02:50:01;0.45;;;0.35;;
42704;SDS011;28342;42.594;23.414;2024-03-25T02:52:27;0.38;;;0.38;;
42704;SDS011;28342;42.594;23.414;2024-03-25T02:54:52;0.77;;;0.70;;
42704;SDS011;28342;42.594;23.414;2024-03-25T02:57:19;0.40;;;0.40;;
42704;SDS011;28342;42.594;23.414;2024-03-25T02:59:45;0.65;;;0.40;;
42704;SDS011;28342;42.594;23.414;2024-03-25T03:02:10;1.83;;;0.55;;
42704;SDS011;28342;42.594;23.414;2024-03-25T03:04:35;0.45;;;0.43;;
42704;SDS011;28342;42.594;23.414;2024-03-25T03:07:01;0.68;;;0.47;;
42704;SDS011;28342;42.594;23.414;2024-03-25T03:09:26;1.17;;;0.68;;
42704;SDS011;28342;42.594;23.414;2024-03-25T03:11:52;1.17;;;0.85;;
42704;SDS011;28342;42.594;23.414;2024-03-25T03:14:17;0.75;;;0.75;;
42704;SDS011;28342;42.594;23.414;2024-03-25T03:16:42;0.65;;;0.57;;
42704;SDS011;28342;42.594;23.414;2024-03-25T03:19:08;1.30;;;0.90;;
42704;SDS011;28342;42.594;23.414;2024-03-25T03:21:33;0.63;;;0.50;;
42704;SDS011;28342;42.594;23.414;2024-03-25T03:23:59;0.90;;;0.60;;
42704;SDS011;28342;42.594;23.414;2024-03-25T03:26:24;0.60;;;0.60;;
42704;SDS011;28342;42.594;23.414;2024-03-25T03:28:56;1.80;;;1.00;;
42704;SDS011;28342;42.594;23.414;2024-03-25T03:31:22;0.80;;;0.75;;
42704;SDS011;28342;42.594;23.414;2024-03-25T03:33:48;2.75;;;0.80;;
42704;SDS011;28342;42.594;23.414;2024-03-25T03:36:15;0.98;;;0.90;;
42704;SDS011;28342;42.594;23.414;2024-03-25T03:38:41;1.30;;;1.10;;
42704;SDS011;28342;42.594;23.414;2024-03-25T03:41:07;1.95;;;1.13;;
42704;SDS011;28342;42.594;23.414;2024-03-25T03:43:32;1.55;;;1.27;;
42704;SDS011;28342;42.594;23.414;2024-03-25T03:45:57;3.13;;;2.13;;
42704;SDS011;28342;42.594;23.414;2024-03-25T03:48:23;4.20;;;2.53;;
42704;SDS011;28342;42.594;23.414;2024-03-25T03:50:48;4.60;;;3.33;;
42704;SDS011;28342;42.594;23.414;2024-03-25T03:53:14;4.28;;;3.30;;
42704;SDS011;28342;42.594;23.414;2024-03-25T03:55:39;6.07;;;3.75;;
42704;SDS011;28342;42.594;23.414;2024-03-25T03:58:04;4.50;;;3.10;;
42704;SDS011;28342;42.594;23.414;2024-03-25T04:00:33;6.05;;;3.97;;
42704;SDS011;28342;42.594;23.414;2024-03-25T04:02:59;4.68;;;3.38;;
42704;SDS011;28342;42.594;23.414;2024-03-25T04:05:28;6.07;;;4.15;;
42704;SDS011;28342;42.594;23.414;2024-03-25T04:07:54;4.28;;;3.63;;
42704;SDS011;28342;42.594;23.414;2024-03-25T04:10:20;7.88;;;3.90;;
42704;SDS011;28342;42.594;23.414;2024-03-25T04:12:45;6.32;;;4.65;;
42704;SDS011;28342;42.594;23.414;2024-03-25T04:15:11;7.15;;;4.70;;
42704;SDS011;28342;42.594;23.414;2024-03-25T04:17:42;6.90;;;4.18;;
42704;SDS011;28342;42.594;23.414;2024-03-25T04:20:11;7.28;;;4.47;;
42704;SDS011;28342;42.594;23.414;2024-03-25T04:22:40;9.57;;;5.32;;
42704;SDS011;28342;42.594;23.414;2024-03-25T04:25:09;5.22;;;4.03;;
42704;SDS011;28342;42.594;23.414;2024-03-25T04:27:42;6.15;;;3.72;;
42704;SDS011;28342;42.594;23.414;2024-03-25T04:30:08;6.35;;;4.13;;
42704;SDS011;28342;42.594;23.414;2024-03-25T04:32:35;7.28;;;4.70;;
42704;SDS011;28342;42.594;23.414;2024-03-25T04:35:01;7.68;;;4.82;;
42704;SDS011;28342;42.594;23.414;2024-03-25T04:37:27;8.20;;;5.18;;
42704;SDS011;28342;42.594;23.414;2024-03-25T04:39:55;12.10;;;6.65;;
42704;SDS011;28342;42.594;23.414;2024-03-25T04:42:21;21.90;;;11.15;;
42704;SDS011;28342;42.594;23.414;2024-03-25T04:44:47;7.18;;;4.97;;
42704;SDS011;28342;42.594;23.414;2024-03-25T04:47:13;8.25;;;5.40;;
42704;SDS011;28342;42.594;23.414;2024-03-25T04:49:40;9.70;;;6.35;;
42704;SDS011;28342;42.594;23.414;2024-03-25T04:52:06;11.52;;;6.72;;
42704;SDS011;28342;42.594;23.414;2024-03-25T04:54:31;13.48;;;7.57;;
42704;SDS011;28342;42.594;23.414;2024-03-25T04:56:57;9.60;;;6.82;;
42704;SDS011;28342;42.594;23.414;2024-03-25T04:59:22;12.85;;;7.40;;
42704;SDS011;28342;42.594;23.414;2024-03-25T05:01:48;14.45;;;8.02;;
42704;SDS011;28342;42.594;23.414;2024-03-25T05:04:13;12.90;;;8.02;;
42704;SDS011;28342;42.594;23.414;2024-03-25T05:06:39;12.35;;;7.50;;
42704;SDS011;28342;42.594;23.414;2024-03-25T05:09:04;15.48;;;7.40;;
42704;SDS011;28342;42.594;23.414;2024-03-25T05:11:31;11.80;;;7.63;;
42704;SDS011;28342;42.594;23.414;2024-03-25T05:13:57;14.10;;;7.13;;
42704;SDS011;28342;42.594;23.414;2024-03-25T05:16:22;12.43;;;7.32;;
42704;SDS011;28342;42.594;23.414;2024-03-25T05:18:48;14.30;;;8.07;;
42704;SDS011;28342;42.594;23.414;2024-03-25T05:21:13;12.00;;;7.88;;
42704;SDS011;28342;42.594;23.414;2024-03-25T05:23:39;20.17;;;9.18;;
42704;SDS011;28342;42.594;23.414;2024-03-25T05:26:05;14.18;;;8.02;;
42704;SDS011;28342;42.594;23.414;2024-03-25T05:28:30;16.13;;;8.88;;
42704;SDS011;28342;42.594;23.414;2024-03-25T05:30:55;16.00;;;8.60;;
42704;SDS011;28342;42.594;23.414;2024-03-25T05:33:21;14.52;;;8.70;;
42704;SDS011;28342;42.594;23.414;2024-03-25T05:35:46;15.95;;;9.40;;
42704;SDS011;28342;42.594;23.414;2024-03-25T05:38:12;17.13;;;9.68;;
42704;SDS011;28342;42.594;23.414;2024-03-25T05:40:37;15.73;;;8.38;;
42704;SDS011;28342;42.594;23.414;2024-03-25T05:43:02;13.80;;;9.10;;
42704;SDS011;28342;42.594;23.414;2024-03-25T05:45:28;15.90;;;8.73;;
42704;SDS011;28342;42.594;23.414;2024-03-25T05:47:54;14.25;;;8.80;;
42704;SDS011;28342;42.594;23.414;2024-03-25T05:50:19;10.43;;;7.43;;
42704;SDS011;28342;42.594;23.414;2024-03-25T05:52:44;11.77;;;7.60;;
42704;SDS011;28342;42.594;23.414;2024-03-25T05:55:10;13.10;;;7.90;;
42704;SDS011;28342;42.594;23.414;2024-03-25T05:57:35;13.88;;;7.75;;
42704;SDS011;28342;42.594;23.414;2024-03-25T06:00:01;12.60;;;7.93;;
42704;SDS011;28342;42.594;23.414;2024-03-25T06:02:28;15.68;;;8.82;;
42704;SDS011;28342;42.594;23.414;2024-03-25T06:04:53;14.20;;;8.65;;
42704;SDS011;28342;42.594;23.414;2024-03-25T06:07:19;13.65;;;7.65;;
42704;SDS011;28342;42.594;23.414;2024-03-25T06:09:44;10.95;;;7.57;;
42704;SDS011;28342;42.594;23.414;2024-03-25T06:12:09;13.27;;;8.02;;
42704;SDS011;28342;42.594;23.414;2024-03-25T06:14:35;10.30;;;7.57;;
42704;SDS011;28342;42.594;23.414;2024-03-25T06:17:00;10.02;;;7.18;;
42704;SDS011;28342;42.594;23.414;2024-03-25T06:19:26;12.05;;;8.18;;
42704;SDS011;28342;42.594;23.414;2024-03-25T06:21:51;12.52;;;7.50;;
42704;SDS011;28342;42.594;23.414;2024-03-25T06:24:16;11.98;;;7.88;;
42704;SDS011;28342;42.594;23.414;2024-03-25T06:26:42;12.93;;;7.68;;
42704;SDS011;28342;42.594;23.414;2024-03-25T06:29:07;11.77;;;7.80;;
42704;SDS011;28342;42.594;23.414;2024-03-25T06:31:33;11.82;;;7.93;;
42704;SDS011;28342;42.594;23.414;2024-03-25T06:36:45;11.25;;;7.38;;
42704;SDS011;28342;42.594;23.414;2024-03-25T06:39:12;11.48;;;7.22;;
42704;SDS011;28342;42.594;23.414;2024-03-25T06:41:38;11.35;;;7.38;;
42704;SDS011;28342;42.594;23.414;2024-03-25T06:44:04;10.02;;;7.20;;
42704;SDS011;28342;42.594;23.414;2024-03-25T06:46:30;13.15;;;7.88;;
42704;SDS011;28342;42.594;23.414;2024-03-25T06:48:55;13.73;;;7.20;;
42704;SDS011;28342;42.594;23.414;2024-03-25T06:51:21;16.67;;;7.68;;
42704;SDS011;28342;42.594;23.414;2024-03-25T06:53:46;9.32;;;6.70;;
42704;SDS011;28342;42.594;23.414;2024-03-25T06:56:12;15.32;;;7.70;;
42704;SDS011;28342;42.594;23.414;2024-03-25T06:58:37;12.63;;;7.80;;
42704;SDS011;28342;42.594;23.414;2024-03-25T07:01:04;9.82;;;7.07;;
42704;SDS011;28342;42.594;23.414;2024-03-25T07:03:33;11.13;;;7.28;;
42704;SDS011;28342;42.594;23.414;2024-03-25T07:06:00;11.55;;;7.20;;
42704;SDS011;28342;42.594;23.414;2024-03-25T07:08:26;10.95;;;8.30;;
42704;SDS011;28342;42.594;23.414;2024-03-25T07:10:52;11.48;;;7.72;;
42704;SDS011;28342;42.594;23.414;2024-03-25T07:13:18;10.80;;;7.47;;
42704;SDS011;28342;42.594;23.414;2024-03-25T07:15:44;12.32;;;7.47;;
42704;SDS011;28342;42.594;23.414;2024-03-25T07:18:10;11.82;;;7.63;;
42704;SDS011;28342;42.594;23.414;2024-03-25T07:20:39;10.63;;;7.40;;
42704;SDS011;28342;42.594;23.414;2024-03-25T07:23:05;9.65;;;7.22;;
42704;SDS011;28342;42.594;23.414;2024-03-25T07:25:30;9.38;;;6.57;;
42704;SDS011;28342;42.594;23.414;2024-03-25T07:27:55;10.07;;;6.82;;
42704;SDS011;28342;42.594;23.414;2024-03-25T07:30:21;9.10;;;6.95;;
42704;SDS011;28342;42.594;23.414;2024-03-25T07:32:53;9.07;;;6.82;;
42704;SDS011;28342;42.594;23.414;2024-03-25T07:35:19;9.13;;;6.60;;
42704;SDS011;28342;42.594;23.414;2024-03-25T07:37:45;11.80;;;6.00;;
42704;SDS011;28342;42.594;23.414;2024-03-25T07:40:10;10.27;;;6.68;;
42704;SDS011;28342;42.594;23.414;2024-03-25T07:42:36;11.13;;;5.65;;
42704;SDS011;28342;42.594;23.414;2024-03-25T07:45:02;8.20;;;6.10;;
42704;SDS011;28342;42.594;23.414;2024-03-25T07:47:30;7.53;;;5.72;;
42704;SDS011;28342;42.594;23.414;2024-03-25T07:49:55;8.20;;;5.93;;
42704;SDS011;28342;42.594;23.414;2024-03-25T07:52:20;10.02;;;6.63;;
42704;SDS011;28342;42.594;23.414;2024-03-25T07:54:46;6.85;;;5.28;;
42704;SDS011;28342;42.594;23.414;2024-03-25T07:57:12;6.97;;;5.47;;
42704;SDS011;28342;42.594;23.414;2024-03-25T07:59:37;8.48;;;5.22;;
42704;SDS011;28342;42.594;23.414;2024-03-25T08:02:03;8.48;;;5.63;;
42704;SDS011;28342;42.594;23.414;2024-03-25T08:04:28;6.40;;;5.38;;
42704;SDS011;28342;42.594;23.414;2024-03-25T08:06:54;7.15;;;6.00;;
42704;SDS011;28342;42.594;23.414;2024-03-25T08:09:19;8.63;;;6.80;;
42704;SDS011;28342;42.594;23.414;2024-03-25T08:11:45;10.10;;;7.40;;
42704;SDS011;28342;42.594;23.414;2024-03-25T08:14:10;7.25;;;5.60;;
42704;SDS011;28342;42.594;23.414;2024-03-25T08:16:37;7.00;;;5.60;;
42704;SDS011;28342;42.594;23.414;2024-03-25T08:19:02;6.55;;;5.00;;
42704;SDS011;28342;42.594;23.414;2024-03-25T08:21:28;7.78;;;4.65;;
42704;SDS011;28342;42.594;23.414;2024-03-25T08:23:53;8.93;;;5.53;;
42704;SDS011;28342;42.594;23.414;2024-03-25T08:26:19;7.10;;;5.43;;
42704;SDS011;28342;42.594;23.414;2024-03-25T08:28:44;7.00;;;5.18;;
42704;SDS011;28342;42.594;23.414;2024-03-25T08:31:10;8.77;;;6.88;;
42704;SDS011;28342;42.594;23.414;2024-03-25T08:33:35;10.32;;;6.97;;
42704;SDS011;28342;42.594;23.414;2024-03-25T08:36:01;10.40;;;6.32;;
42704;SDS011;28342;42.594;23.414;2024-03-25T08:38:26;8.10;;;5.45;;
42704;SDS011;28342;42.594;23.414;2024-03-25T08:40:52;7.57;;;5.18;;
42704;SDS011;28342;42.594;23.414;2024-03-25T08:43:18;6.35;;;4.85;;
42704;SDS011;28342;42.594;23.414;2024-03-25T08:45:46;8.98;;;5.72;;
42704;SDS011;28342;42.594;23.414;2024-03-25T08:48:12;8.30;;;4.95;;
42704;SDS011;28342;42.594;23.414;2024-03-25T08:50:37;6.72;;;4.82;;
42704;SDS011;28342;42.594;23.414;2024-03-25T08:53:03;5.80;;;4.55;;
42704;SDS011;28342;42.594;23.414;2024-03-25T08:55:29;7.78;;;5.43;;
42704;SDS011;28342;42.594;23.414;2024-03-25T08:57:55;5.60;;;5.10;;
42704;SDS011;28342;42.594;23.414;2024-03-25T09:00:23;5.82;;;4.70;;
42704;SDS011;28342;42.594;23.414;2024-03-25T09:02:49;4.57;;;4.07;;
42704;SDS011;28342;42.594;23.414;2024-03-25T09:05:15;6.93;;;4.68;;
42704;SDS011;28342;42.594;23.414;2024-03-25T09:07:43;5.65;;;4.43;;
42704;SDS011;28342;42.594;23.414;2024-03-25T09:10:10;6.97;;;4.57;;
42704;SDS011;28342;42.594;23.414;2024-03-25T09:12:54;5.40;;;4.32;;
42704;SDS011;28342;42.594;23.414;2024-03-25T09:15:19;6.97;;;4.10;;
42704;SDS011;28342;42.594;23.414;2024-03-25T09:17:45;10.45;;;4.90;;
42704;SDS011;28342;42.594;23.414;2024-03-25T09:20:10;6.75;;;4.50;;
42704;SDS011;28342;42.594;23.414;2024-03-25T09:22:44;8.00;;;5.43;;
42704;SDS011;28342;42.594;23.414;2024-03-25T09:25:10;7.85;;;5.10;;
42704;SDS011;28342;42.594;23.414;2024-03-25T09:27:36;5.10;;;4.50;;
42704;SDS011;28342;42.594;23.414;2024-03-25T09:30:02;5.80;;;4.75;;
42704;SDS011;28342;42.594;23.414;2024-03-25T09:32:29;7.10;;;5.10;;
42704;SDS011;28342;42.594;23.414;2024-03-25T09:34:58;8.73;;;5.40;;
42704;SDS011;28342;42.594;23.414;2024-03-25T09:37:23;6.93;;;4.88;;
42704;SDS011;28342;42.594;23.414;2024-03-25T09:39:49;6.22;;;5.63;;
42704;SDS011;28342;42.594;23.414;2024-03-25T09:42:15;5.70;;;4.47;;
42704;SDS011;28342;42.594;23.414;2024-03-25T09:44:43;7.28;;;4.72;;
42704;SDS011;28342;42.594;23.414;2024-03-25T09:47:09;7.30;;;5.65;;
42704;SDS011;28342;42.594;23.414;2024-03-25T09:49:37;7.07;;;5.65;;
42704;SDS011;28342;42.594;23.414;2024-03-25T09:52:06;7.05;;;6.32;;
42704;SDS011;28342;42.594;23.414;2024-03-25T09:54:32;9.65;;;6.88;;
42704;SDS011;28342;42.594;23.414;2024-03-25T09:56:58;7.55;;;5.93;;
42704;SDS011;28342;42.594;23.414;2024-03-25T09:59:25;5.70;;;4.90;;
42704;SDS011;28342;42.594;23.414;2024-03-25T10:01:52;6.03;;;5.07;;
42704;SDS011;28342;42.594;23.414;2024-03-25T10:04:19;7.07;;;5.60;;
42704;SDS011;28342;42.594;23.414;2024-03-25T10:06:44;6.05;;;5.30;;
42704;SDS011;28342;42.594;23.414;2024-03-25T10:09:10;7.18;;;4.85;;
42704;SDS011;28342;42.594;23.414;2024-03-25T10:11:36;6.85;;;5.10;;
42704;SDS011;28342;42.594;23.414;2024-03-25T10:14:01;7.13;;;4.90;;
42704;SDS011;28342;42.594;23.414;2024-03-25T10:16:27;6.45;;;4.95;;
42704;SDS011;28342;42.594;23.414;2024-03-25T10:18:53;7.90;;;5.82;;
42704;SDS011;28342;42.594;23.414;2024-03-25T10:21:19;6.60;;;5.25;;
42704;SDS011;28342;42.594;23.414;2024-03-25T10:23:50;5.68;;;4.70;;
42704;SDS011;28342;42.594;23.414;2024-03-25T10:26:28;4.78;;;4.28;;
42704;SDS011;28342;42.594;23.414;2024-03-25T10:29:00;4.50;;;4.10;;
42704;SDS011;28342;42.594;23.414;2024-03-25T10:31:28;5.43;;;4.20;;
42704;SDS011;28342;42.594;23.414;2024-03-25T10:33:53;5.22;;;4.07;;
42704;SDS011;28342;42.594;23.414;2024-03-25T10:36:19;6.43;;;4.07;;
42704;SDS011;28342;42.594;23.414;2024-03-25T10:38:46;4.85;;;3.38;;
42704;SDS011;28342;42.594;23.414;2024-03-25T10:41:14;3.67;;;3.38;;
42704;SDS011;28342;42.594;23.414;2024-03-25T10:43:44;11.05;;;3.78;;
42704;SDS011;28342;42.594;23.414;2024-03-25T10:46:11;4.50;;;3.25;;
42704;SDS011;28342;42.594;23.414;2024-03-25T10:48:41;6.55;;;4.07;;
42704;SDS011;28342;42.594;23.414;2024-03-25T10:51:13;7.10;;;4.38;;
42704;SDS011;28342;42.594;23.414;2024-03-25T10:53:39;4.85;;;3.17;;
42704;SDS011;28342;42.594;23.414;2024-03-25T10:56:06;3.58;;;2.97;;
42704;SDS011;28342;42.594;23.414;2024-03-25T10:58:32;4.32;;;3.30;;
42704;SDS011;28342;42.594;23.414;2024-03-25T11:00:58;4.97;;;3.83;;
42704;SDS011;28342;42.594;23.414;2024-03-25T11:03:25;5.38;;;3.15;;
42704;SDS011;28342;42.594;23.414;2024-03-25T11:05:51;4.25;;;2.50;;
42704;SDS011;28342;42.594;23.414;2024-03-25T11:08:17;4.07;;;3.22;;
42704;SDS011;28342;42.594;23.414;2024-03-25T11:10:46;8.10;;;4.95;;
42704;SDS011;28342;42.594;23.414;2024-03-25T11:13:18;5.18;;;3.53;;
42704;SDS011;28342;42.594;23.414;2024-03-25T11:15:44;3.38;;;2.95;;
42704;SDS011;28342;42.594;23.414;2024-03-25T11:18:17;5.63;;;3.63;;
42704;SDS011;28342;42.594;23.414;2024-03-25T11:20:58;5.22;;;4.32;;
42704;SDS011;28342;42.594;23.414;2024-03-25T11:23:24;4.05;;;3.30;;
42704;SDS011;28342;42.594;23.414;2024-03-25T11:25:54;3.30;;;3.00;;
42704;SDS011;28342;42.594;23.414;2024-03-25T11:28:26;6.35;;;4.18;;
42704;SDS011;28342;42.594;23.414;2024-03-25T11:30:52;2.90;;;2.65;;
42704;SDS011;28342;42.594;23.414;2024-03-25T11:33:18;5.28;;;3.42;;
42704;SDS011;28342;42.594;23.414;2024-03-25T11:35:47;2.78;;;2.58;;
42704;SDS011;28342;42.594;23.414;2024-03-25T11:38:13;4.10;;;2.67;;
42704;SDS011;28342;42.594;23.414;2024-03-25T11:40:40;17.13;;;5.88;;
42704;SDS011;28342;42.594;23.414;2024-03-25T11:43:07;13.50;;;6.35;;
42704;SDS011;28342;42.594;23.414;2024-03-25T11:45:33;6.40;;;3.85;;
42704;SDS011;28342;42.594;23.414;2024-03-25T11:47:58;5.15;;;2.50;;
42704;SDS011;28342;42.594;23.414;2024-03-25T11:50:24;12.38;;;5.47;;
42704;SDS011;28342;42.594;23.414;2024-03-25T11:52:49;4.97;;;3.35;;
42704;SDS011;28342;42.594;23.414;2024-03-25T11:55:18;5.30;;;2.92;;
42704;SDS011;28342;42.594;23.414;2024-03-25T11:57:43;5.75;;;3.35;;
42704;SDS011;28342;42.594;23.414;2024-03-25T12:00:09;4.28;;;2.60;;
42704;SDS011;28342;42.594;23.414;2024-03-25T12:02:44;3.35;;;2.60;;
42704;SDS011;28342;42.594;23.414;2024-03-25T12:05:10;9.02;;;2.88;;
42704;SDS011;28342;42.594;23.414;2024-03-25T12:07:36;3.28;;;2.42;;
42704;SDS011;28342;42.594;23.414;2024-03-25T12:10:02;16.85;;;6.43;;
42704;SDS011;28342;42.594;23.414;2024-03-25T12:15:12;5.50;;;3.00;;
42704;SDS011;28342;42.594;23.414;2024-03-25T12:17:37;20.67;;;8.30;;
42704;SDS011;28342;42.594;23.414;2024-03-25T12:20:04;4.55;;;2.53;;
42704;SDS011;28342;42.594;23.414;2024-03-25T12:22:34;3.13;;;2.63;;
42704;SDS011;28342;42.594;23.414;2024-03-25T12:25:03;5.57;;;2.22;;
42704;SDS011;28342;42.594;23.414;2024-03-25T12:27:31;5.22;;;2.25;;
42704;SDS011;28342;42.594;23.414;2024-03-25T12:29:58;6.65;;;4.10;;
42704;SDS011;28342;42.594;23.414;2024-03-25T12:32:30;2.75;;;2.10;;
42704;SDS011;28342;42.594;23.414;2024-03-25T12:34:58;5.53;;;2.60;;
42704;SDS011;28342;42.594;23.414;2024-03-25T12:37:25;3.47;;;2.53;;
42704;SDS011;28342;42.594;23.414;2024-03-25T12:39:51;8.45;;;4.55;;
42704;SDS011;28342;42.594;23.414;2024-03-25T12:42:17;4.40;;;2.70;;
42704;SDS011;28342;42.594;23.414;2024-03-25T12:44:42;8.70;;;4.55;;
42704;SDS011;28342;42.594;23.414;2024-03-25T12:47:08;5.47;;;3.75;;
42704;SDS011;28342;42.594;23.414;2024-03-25T12:49:33;3.58;;;2.97;;
42704;SDS011;28342;42.594;23.414;2024-03-25T12:51:58;6.43;;;3.83;;
42704;SDS011;28342;42.594;23.414;2024-03-25T12:54:24;3.30;;;3.00;;
42704;SDS011;28342;42.594;23.414;2024-03-25T12:56:49;2.53;;;2.20;;
42704;SDS011;28342;42.594;23.414;2024-03-25T12:59:15;4.07;;;2.00;;
42704;SDS011;28342;42.594;23.414;2024-03-25T13:01:40;3.03;;;2.10;;
42704;SDS011;28342;42.594;23.414;2024-03-25T13:04:05;5.47;;;2.70;;
42704;SDS011;28342;42.594;23.414;2024-03-25T13:06:31;4.38;;;2.10;;
42704;SDS011;28342;42.594;23.414;2024-03-25T13:08:56;2.60;;;2.30;;
42704;SDS011;28342;42.594;23.414;2024-03-25T13:11:22;2.10;;;1.90;;
42704;SDS011;28342;42.594;23.414;2024-03-25T13:13:47;3.08;;;2.40;;
42704;SDS011;28342;42.594;23.414;2024-03-25T13:16:13;3.38;;;2.25;;
42704;SDS011;28342;42.594;23.414;2024-03-25T13:18:38;2.78;;;2.45;;
42704;SDS011;28342;42.594;23.414;2024-03-25T13:21:03;2.97;;;2.50;;
42704;SDS011;28342;42.594;23.414;2024-03-25T13:23:29;4.15;;;3.22;;
42704;SDS011;28342;42.594;23.414;2024-03-25T13:25:54;2.83;;;2.53;;
42704;SDS011;28342;42.594;23.414;2024-03-25T13:28:20;8.98;;;3.13;;
42704;SDS011;28342;42.594;23.414;2024-03-25T13:30:46;2.90;;;2.20;;
42704;SDS011;28342;42.594;23.414;2024-03-25T13:33:12;3.08;;;2.78;;
42704;SDS011;28342;42.594;23.414;2024-03-25T13:35:37;4.82;;;3.50;;
42704;SDS011;28342;42.594;23.414;2024-03-25T13:38:03;2.78;;;2.53;;
42704;SDS011;28342;42.594;23.414;2024-03-25T13:40:28;3.28;;;2.60;;
42704;SDS011;28342;42.594;23.414;2024-03-25T13:42:54;2.53;;;2.33;;
42704;SDS011;28342;42.594;23.414;2024-03-25T13:45:19;2.78;;;2.30;;
42704;SDS011;28342;42.594;23.414;2024-03-25T13:47:45;2.90;;;2.33;;
42704;SDS011;28342;42.594;23.414;2024-03-25T13:50:10;3.35;;;2.13;;
42704;SDS011;28342;42.594;23.414;2024-03-25T13:52:36;2.35;;;2.15;;
42704;SDS011;28342;42.594;23.414;2024-03-25T13:55:02;3.05;;;2.00;;
42704;SDS011;28342;42.594;23.414;2024-03-25T13:57:28;2.58;;;2.10;;
42704;SDS011;28342;42.594;23.414;2024-03-25T13:59:53;3.58;;;2.72;;
42704;SDS011;28342;42.594;23.414;2024-03-25T14:02:19;2.97;;;2.13;;
42704;SDS011;28342;42.594;23.414;2024-03-25T14:04:44;2.05;;;1.88;;
42704;SDS011;28342;42.594;23.414;2024-03-25T14:07:10;1.98;;;1.77;;
42704;SDS011;28342;42.594;23.414;2024-03-25T14:09:36;3.10;;;2.20;;
42704;SDS011;28342;42.594;23.414;2024-03-25T14:12:01;1.92;;;1.73;;
42704;SDS011;28342;42.594;23.414;2024-03-25T14:14:28;2.88;;;2.25;;
42704;SDS011;28342;42.594;23.414;2024-03-25T14:16:54;3.58;;;2.30;;
42704;SDS011;28342;42.594;23.414;2024-03-25T14:19:19;2.67;;;2.30;;
42704;SDS011;28342;42.594;23.414;2024-03-25T14:21:45;4.88;;;2.30;;
42704;SDS011;28342;42.594;23.414;2024-03-25T14:24:13;3.75;;;1.70;;
42704;SDS011;28342;42.594;23.414;2024-03-25T14:26:38;3.88;;;1.60;;
42704;SDS011;28342;42.594;23.414;2024-03-25T14:29:03;2.25;;;1.48;;
42704;SDS011;28342;42.594;23.414;2024-03-25T14:31:29;6.90;;;1.85;;